sensor_id;sensor_type;location;lat;lon;timestamp;P1;durP1;ratioP1;P2;durP2;ratioP2
6113;SDS011;3087;48.392;10.836;2022-12-05T00:01:18;13.50;;;9.83;;
6113;SDS011;3087;48.392;10.836;2022-12-05T00:03:45;12.77;;;9.40;;
6113;SDS011;3087;48.392;10.836;2022-12-05T00:06:11;13.57;;;9.97;;
6113;SDS011;3087;48.392;10.836;2022-12-05T00:08:37;12.57;;;9.27;;
6113;SDS011;3087;48.392;10.836;2022-12-05T00:11:03;14.67;;;10.23;;
6113;SDS011;3087;48.392;10.836;2022-12-05T00:13:38;14.03;;;10.63;;
6113;SDS011;3087;48.392;10.836;2022-12-05T00:16:09;14.03;;;9.60;;
6113;SDS011;3087;48.392;10.836;2022-12-05T00:18:36;12.63;;;9.47;;
6113;SDS011;3087;48.392;10.836;2022-12-05T00:21:02;13.90;;;9.87;;
6113;SDS011;3087;48.392;10.836;2022-12-05T00:23:28;13.23;;;10.00;;
6113;SDS011;3087;48.392;10.836;2022-12-05T00:25:54;16.17;;;10.60;;
6113;SDS011;3087;48.392;10.836;2022-12-05T00:28:20;15.67;;;10.80;;
6113;SDS011;3087;48.392;10.836;2022-12-05T00:30:45;16.63;;;10.53;;
6113;SDS011;3087;48.392;10.836;2022-12-05T00:33:11;15.73;;;10.20;;
6113;SDS011;3087;48.392;10.836;2022-12-05T00:35:37;15.73;;;10.17;;
6113;SDS011;3087;48.392;10.836;2022-12-05T00:38:02;15.63;;;10.83;;
6113;SDS011;3087;48.392;10.836;2022-12-05T00:40:28;16.20;;;10.70;;
6113;SDS011;3087;48.392;10.836;2022-12-05T00:42:54;18.47;;;11.20;;
6113;SDS011;3087;48.392;10.836;2022-12-05T00:45:20;16.97;;;10.93;;
6113;SDS011;3087;48.392;10.836;2022-12-05T00:47:46;14.90;;;10.23;;
6113;SDS011;3087;48.392;10.836;2022-12-05T00:50:12;18.60;;;12.23;;
6113;SDS011;3087;48.392;10.836;2022-12-05T00:52:38;16.03;;;11.50;;
6113;SDS011;3087;48.392;10.836;2022-12-05T00:55:04;16.00;;;11.27;;
6113;SDS011;3087;48.392;10.836;2022-12-05T00:57:30;18.03;;;11.70;;
6113;SDS011;3087;48.392;10.836;2022-12-05T00:59:56;17.27;;;12.73;;
6113;SDS011;3087;48.392;10.836;2022-12-05T01:02:22;15.73;;;10.73;;
6113;SDS011;3087;48.392;10.836;2022-12-05T01:04:48;19.07;;;12.27;;
6113;SDS011;3087;48.392;10.836;2022-12-05T01:07:13;20.13;;;12.97;;
6113;SDS011;3087;48.392;10.836;2022-12-05T01:09:39;18.93;;;12.13;;
6113;SDS011;3087;48.392;10.836;2022-12-05T01:12:05;20.27;;;13.13;;
6113;SDS011;3087;48.392;10.836;2022-12-05T01:14:31;23.33;;;13.10;;
6113;SDS011;3087;48.392;10.836;2022-12-05T01:16:57;21.03;;;14.07;;
6113;SDS011;3087;48.392;10.836;2022-12-05T01:19:24;20.33;;;13.27;;
6113;SDS011;3087;48.392;10.836;2022-12-05T01:21:53;22.37;;;13.87;;
6113;SDS011;3087;48.392;10.836;2022-12-05T01:24:19;21.10;;;12.83;;
6113;SDS011;3087;48.392;10.836;2022-12-05T01:26:46;22.00;;;14.20;;
6113;SDS011;3087;48.392;10.836;2022-12-05T01:29:13;20.37;;;13.10;;
6113;SDS011;3087;48.392;10.836;2022-12-05T01:31:40;24.33;;;14.53;;
6113;SDS011;3087;48.392;10.836;2022-12-05T01:34:08;23.07;;;14.00;;
6113;SDS011;3087;48.392;10.836;2022-12-05T01:36:39;20.23;;;12.90;;
6113;SDS011;3087;48.392;10.836;2022-12-05T01:39:06;23.07;;;15.13;;
6113;SDS011;3087;48.392;10.836;2022-12-05T01:41:33;22.90;;;15.20;;
6113;SDS011;3087;48.392;10.836;2022-12-05T01:46:36;20.23;;;13.20;;
6113;SDS011;3087;48.392;10.836;2022-12-05T01:49:14;20.30;;;13.47;;
6113;SDS011;3087;48.392;10.836;2022-12-05T01:51:44;20.63;;;13.27;;
6113;SDS011;3087;48.392;10.836;2022-12-05T01:54:12;19.60;;;13.00;;
6113;SDS011;3087;48.392;10.836;2022-12-05T01:56:40;19.37;;;13.20;;
6113;SDS011;3087;48.392;10.836;2022-12-05T01:59:10;18.93;;;12.50;;
6113;SDS011;3087;48.392;10.836;2022-12-05T02:01:36;22.03;;;14.53;;
6113;SDS011;3087;48.392;10.836;2022-12-05T02:04:03;20.27;;;12.77;;
6113;SDS011;3087;48.392;10.836;2022-12-05T02:06:29;21.27;;;13.70;;
6113;SDS011;3087;48.392;10.836;2022-12-05T02:08:56;18.07;;;12.57;;
6113;SDS011;3087;48.392;10.836;2022-12-05T02:11:22;21.33;;;13.63;;
6113;SDS011;3087;48.392;10.836;2022-12-05T02:14:00;18.63;;;12.87;;
6113;SDS011;3087;48.392;10.836;2022-12-05T02:19:51;19.73;;;12.70;;
6113;SDS011;3087;48.392;10.836;2022-12-05T02:22:44;17.93;;;11.87;;
6113;SDS011;3087;48.392;10.836;2022-12-05T02:36:17;21.07;;;13.03;;
6113;SDS011;3087;48.392;10.836;2022-12-05T02:39:01;18.47;;;11.67;;
6113;SDS011;3087;48.392;10.836;2022-12-05T02:41:35;17.23;;;11.50;;
6113;SDS011;3087;48.392;10.836;2022-12-05T02:44:15;14.33;;;10.17;;
6113;SDS011;3087;48.392;10.836;2022-12-05T02:46:45;14.17;;;9.90;;
6113;SDS011;3087;48.392;10.836;2022-12-05T02:49:16;13.53;;;9.03;;
6113;SDS011;3087;48.392;10.836;2022-12-05T02:51:46;17.50;;;11.33;;
6113;SDS011;3087;48.392;10.836;2022-12-05T02:54:15;15.00;;;10.47;;
6113;SDS011;3087;48.392;10.836;2022-12-05T02:56:45;14.23;;;9.70;;
6113;SDS011;3087;48.392;10.836;2022-12-05T02:59:11;15.67;;;9.23;;
6113;SDS011;3087;48.392;10.836;2022-12-05T03:01:37;16.90;;;11.03;;
6113;SDS011;3087;48.392;10.836;2022-12-05T03:04:04;17.73;;;10.03;;
6113;SDS011;3087;48.392;10.836;2022-12-05T03:06:39;15.07;;;9.63;;
6113;SDS011;3087;48.392;10.836;2022-12-05T03:09:08;13.97;;;9.47;;
6113;SDS011;3087;48.392;10.836;2022-12-05T03:11:48;14.30;;;9.87;;
6113;SDS011;3087;48.392;10.836;2022-12-05T03:14:22;15.33;;;10.37;;
6113;SDS011;3087;48.392;10.836;2022-12-05T03:16:53;13.63;;;9.57;;
6113;SDS011;3087;48.392;10.836;2022-12-05T03:19:28;14.53;;;10.20;;
6113;SDS011;3087;48.392;10.836;2022-12-05T03:21:57;15.47;;;10.40;;
6113;SDS011;3087;48.392;10.836;2022-12-05T03:24:27;14.60;;;9.30;;
6113;SDS011;3087;48.392;10.836;2022-12-05T03:30:01;16.20;;;11.13;;
6113;SDS011;3087;48.392;10.836;2022-12-05T03:43:56;18.33;;;10.30;;
6113;SDS011;3087;48.392;10.836;2022-12-05T03:46:23;18.10;;;12.20;;
6113;SDS011;3087;48.392;10.836;2022-12-05T03:49:03;17.97;;;10.80;;
6113;SDS011;3087;48.392;10.836;2022-12-05T03:51:54;17.83;;;11.23;;
6113;SDS011;3087;48.392;10.836;2022-12-05T03:54:46;17.13;;;11.33;;
6113;SDS011;3087;48.392;10.836;2022-12-05T03:57:26;16.67;;;11.30;;
6113;SDS011;3087;48.392;10.836;2022-12-05T04:00:22;18.30;;;12.17;;
6113;SDS011;3087;48.392;10.836;2022-12-05T04:05:30;17.23;;;10.73;;
6113;SDS011;3087;48.392;10.836;2022-12-05T04:08:05;17.80;;;11.27;;
6113;SDS011;3087;48.392;10.836;2022-12-05T04:10:36;18.60;;;11.53;;
6113;SDS011;3087;48.392;10.836;2022-12-05T04:13:12;19.07;;;11.77;;
6113;SDS011;3087;48.392;10.836;2022-12-05T04:15:53;17.27;;;11.87;;
6113;SDS011;3087;48.392;10.836;2022-12-05T04:18:46;16.93;;;11.23;;
6113;SDS011;3087;48.392;10.836;2022-12-05T04:21:19;18.60;;;11.73;;
6113;SDS011;3087;48.392;10.836;2022-12-05T04:24:04;18.23;;;12.03;;
6113;SDS011;3087;48.392;10.836;2022-12-05T04:26:52;17.43;;;11.47;;
6113;SDS011;3087;48.392;10.836;2022-12-05T04:29:36;17.40;;;11.30;;
6113;SDS011;3087;48.392;10.836;2022-12-05T04:32:08;19.93;;;12.73;;
6113;SDS011;3087;48.392;10.836;2022-12-05T04:34:36;21.07;;;12.93;;
6113;SDS011;3087;48.392;10.836;2022-12-05T04:37:07;22.80;;;13.80;;
6113;SDS011;3087;48.392;10.836;2022-12-05T04:42:07;21.70;;;12.50;;
6113;SDS011;3087;48.392;10.836;2022-12-05T04:44:46;21.43;;;14.13;;
6113;SDS011;3087;48.392;10.836;2022-12-05T04:47:16;21.43;;;13.23;;
6113;SDS011;3087;48.392;10.836;2022-12-05T04:49:44;18.17;;;11.70;;
6113;SDS011;3087;48.392;10.836;2022-12-05T04:52:11;22.00;;;14.07;;
6113;SDS011;3087;48.392;10.836;2022-12-05T04:54:49;20.87;;;13.27;;
6113;SDS011;3087;48.392;10.836;2022-12-05T04:57:42;20.97;;;12.53;;
6113;SDS011;3087;48.392;10.836;2022-12-05T05:00:23;23.03;;;12.60;;
6113;SDS011;3087;48.392;10.836;2022-12-05T05:02:50;20.90;;;13.03;;
6113;SDS011;3087;48.392;10.836;2022-12-05T05:05:22;24.53;;;14.47;;
6113;SDS011;3087;48.392;10.836;2022-12-05T05:07:50;24.13;;;13.47;;
6113;SDS011;3087;48.392;10.836;2022-12-05T05:10:19;21.50;;;14.03;;
6113;SDS011;3087;48.392;10.836;2022-12-05T05:13:11;21.53;;;14.70;;
6113;SDS011;3087;48.392;10.836;2022-12-05T05:15:37;28.47;;;16.40;;
6113;SDS011;3087;48.392;10.836;2022-12-05T05:18:03;36.40;;;20.87;;
6113;SDS011;3087;48.392;10.836;2022-12-05T05:20:29;30.83;;;18.90;;
6113;SDS011;3087;48.392;10.836;2022-12-05T05:22:55;38.73;;;22.93;;
6113;SDS011;3087;48.392;10.836;2022-12-05T05:25:22;26.10;;;17.77;;
6113;SDS011;3087;48.392;10.836;2022-12-05T05:27:49;20.00;;;15.00;;
6113;SDS011;3087;48.392;10.836;2022-12-05T05:30:17;19.80;;;13.13;;
6113;SDS011;3087;48.392;10.836;2022-12-05T05:32:44;18.37;;;13.50;;
6113;SDS011;3087;48.392;10.836;2022-12-05T05:35:10;19.93;;;12.90;;
6113;SDS011;3087;48.392;10.836;2022-12-05T05:37:36;20.03;;;12.93;;
6113;SDS011;3087;48.392;10.836;2022-12-05T05:40:03;19.27;;;13.40;;
6113;SDS011;3087;48.392;10.836;2022-12-05T05:42:30;19.73;;;13.07;;
6113;SDS011;3087;48.392;10.836;2022-12-05T05:44:56;22.60;;;13.77;;
6113;SDS011;3087;48.392;10.836;2022-12-05T05:47:22;21.33;;;14.40;;
6113;SDS011;3087;48.392;10.836;2022-12-05T05:49:48;20.07;;;13.03;;
6113;SDS011;3087;48.392;10.836;2022-12-05T05:52:14;19.50;;;13.37;;
6113;SDS011;3087;48.392;10.836;2022-12-05T05:54:39;21.27;;;13.13;;
6113;SDS011;3087;48.392;10.836;2022-12-05T05:57:05;18.37;;;12.93;;
6113;SDS011;3087;48.392;10.836;2022-12-05T05:59:31;17.77;;;12.80;;
6113;SDS011;3087;48.392;10.836;2022-12-05T06:01:57;19.87;;;13.77;;
6113;SDS011;3087;48.392;10.836;2022-12-05T06:04:22;21.23;;;14.00;;
6113;SDS011;3087;48.392;10.836;2022-12-05T06:06:48;19.53;;;12.87;;
6113;SDS011;3087;48.392;10.836;2022-12-05T06:09:14;18.87;;;13.57;;
6113;SDS011;3087;48.392;10.836;2022-12-05T06:11:40;21.17;;;14.23;;
6113;SDS011;3087;48.392;10.836;2022-12-05T06:14:05;23.07;;;13.70;;
6113;SDS011;3087;48.392;10.836;2022-12-05T06:16:31;18.17;;;13.13;;
6113;SDS011;3087;48.392;10.836;2022-12-05T06:18:57;19.17;;;13.03;;
6113;SDS011;3087;48.392;10.836;2022-12-05T06:21:23;19.20;;;12.90;;
6113;SDS011;3087;48.392;10.836;2022-12-05T06:23:49;20.77;;;13.17;;
6113;SDS011;3087;48.392;10.836;2022-12-05T06:26:16;18.03;;;13.40;;
6113;SDS011;3087;48.392;10.836;2022-12-05T06:28:44;22.30;;;13.40;;
6113;SDS011;3087;48.392;10.836;2022-12-05T06:31:10;20.43;;;13.30;;
6113;SDS011;3087;48.392;10.836;2022-12-05T06:33:41;18.43;;;13.40;;
6113;SDS011;3087;48.392;10.836;2022-12-05T06:36:09;22.00;;;13.90;;
6113;SDS011;3087;48.392;10.836;2022-12-05T06:38:36;23.10;;;14.70;;
6113;SDS011;3087;48.392;10.836;2022-12-05T06:41:06;21.83;;;14.30;;
6113;SDS011;3087;48.392;10.836;2022-12-05T06:43:34;19.80;;;13.47;;
6113;SDS011;3087;48.392;10.836;2022-12-05T06:46:03;21.33;;;14.53;;
6113;SDS011;3087;48.392;10.836;2022-12-05T06:48:32;18.07;;;12.90;;
6113;SDS011;3087;48.392;10.836;2022-12-05T06:50:58;21.80;;;13.87;;
6113;SDS011;3087;48.392;10.836;2022-12-05T06:53:24;22.50;;;14.50;;
6113;SDS011;3087;48.392;10.836;2022-12-05T06:55:54;18.07;;;12.20;;
6113;SDS011;3087;48.392;10.836;2022-12-05T06:58:24;22.73;;;14.30;;
6113;SDS011;3087;48.392;10.836;2022-12-05T07:00:50;23.17;;;14.00;;
6113;SDS011;3087;48.392;10.836;2022-12-05T07:03:35;22.13;;;14.67;;
6113;SDS011;3087;48.392;10.836;2022-12-05T07:06:01;18.40;;;13.80;;
6113;SDS011;3087;48.392;10.836;2022-12-05T07:08:28;19.23;;;13.60;;
6113;SDS011;3087;48.392;10.836;2022-12-05T07:10:54;20.47;;;14.10;;
6113;SDS011;3087;48.392;10.836;2022-12-05T07:13:20;17.93;;;12.60;;
6113;SDS011;3087;48.392;10.836;2022-12-05T07:15:46;18.60;;;12.97;;
6113;SDS011;3087;48.392;10.836;2022-12-05T07:18:13;21.30;;;13.77;;
6113;SDS011;3087;48.392;10.836;2022-12-05T07:20:39;18.50;;;12.53;;
6113;SDS011;3087;48.392;10.836;2022-12-05T07:23:05;17.40;;;12.20;;
6113;SDS011;3087;48.392;10.836;2022-12-05T07:25:31;16.80;;;12.00;;
6113;SDS011;3087;48.392;10.836;2022-12-05T07:27:57;17.50;;;11.67;;
6113;SDS011;3087;48.392;10.836;2022-12-05T07:30:23;17.70;;;12.80;;
6113;SDS011;3087;48.392;10.836;2022-12-05T07:32:48;16.33;;;12.23;;
6113;SDS011;3087;48.392;10.836;2022-12-05T07:35:14;19.63;;;12.90;;
6113;SDS011;3087;48.392;10.836;2022-12-05T07:37:40;20.13;;;13.37;;
6113;SDS011;3087;48.392;10.836;2022-12-05T07:40:06;18.03;;;13.10;;
6113;SDS011;3087;48.392;10.836;2022-12-05T07:42:32;17.67;;;11.93;;
6113;SDS011;3087;48.392;10.836;2022-12-05T07:44:57;19.13;;;13.67;;
6113;SDS011;3087;48.392;10.836;2022-12-05T07:47:23;19.00;;;13.80;;
6113;SDS011;3087;48.392;10.836;2022-12-05T07:49:49;25.03;;;16.60;;
6113;SDS011;3087;48.392;10.836;2022-12-05T07:52:15;23.17;;;15.27;;
6113;SDS011;3087;48.392;10.836;2022-12-05T07:54:41;22.67;;;14.53;;
6113;SDS011;3087;48.392;10.836;2022-12-05T07:57:07;21.70;;;14.57;;
6113;SDS011;3087;48.392;10.836;2022-12-05T07:59:33;21.40;;;14.80;;
6113;SDS011;3087;48.392;10.836;2022-12-05T08:01:59;20.87;;;14.17;;
6113;SDS011;3087;48.392;10.836;2022-12-05T08:04:25;18.47;;;12.63;;
6113;SDS011;3087;48.392;10.836;2022-12-05T08:06:51;16.30;;;11.70;;
6113;SDS011;3087;48.392;10.836;2022-12-05T08:09:17;18.43;;;13.37;;
6113;SDS011;3087;48.392;10.836;2022-12-05T08:11:42;20.07;;;13.13;;
6113;SDS011;3087;48.392;10.836;2022-12-05T08:14:08;16.83;;;12.77;;
6113;SDS011;3087;48.392;10.836;2022-12-05T08:16:34;18.60;;;12.30;;
6113;SDS011;3087;48.392;10.836;2022-12-05T08:19:01;20.33;;;14.30;;
6113;SDS011;3087;48.392;10.836;2022-12-05T08:21:28;20.53;;;14.10;;
6113;SDS011;3087;48.392;10.836;2022-12-05T08:23:54;21.40;;;14.93;;
6113;SDS011;3087;48.392;10.836;2022-12-05T08:26:21;17.93;;;12.73;;
6113;SDS011;3087;48.392;10.836;2022-12-05T08:28:52;17.90;;;12.70;;
6113;SDS011;3087;48.392;10.836;2022-12-05T08:31:20;19.97;;;14.20;;
6113;SDS011;3087;48.392;10.836;2022-12-05T08:33:50;18.67;;;12.67;;
6113;SDS011;3087;48.392;10.836;2022-12-05T08:36:17;19.70;;;13.70;;
6113;SDS011;3087;48.392;10.836;2022-12-05T08:38:43;18.77;;;13.20;;
6113;SDS011;3087;48.392;10.836;2022-12-05T08:41:13;18.93;;;13.00;;
6113;SDS011;3087;48.392;10.836;2022-12-05T08:43:42;18.03;;;12.53;;
6113;SDS011;3087;48.392;10.836;2022-12-05T08:46:08;17.13;;;12.40;;
6113;SDS011;3087;48.392;10.836;2022-12-05T08:48:35;16.83;;;12.50;;
6113;SDS011;3087;48.392;10.836;2022-12-05T08:51:04;18.13;;;12.77;;
6113;SDS011;3087;48.392;10.836;2022-12-05T08:53:31;17.70;;;13.00;;
6113;SDS011;3087;48.392;10.836;2022-12-05T08:56:01;20.40;;;13.20;;
6113;SDS011;3087;48.392;10.836;2022-12-05T08:58:31;21.30;;;14.73;;
6113;SDS011;3087;48.392;10.836;2022-12-05T09:01:04;20.33;;;13.67;;
6113;SDS011;3087;48.392;10.836;2022-12-05T09:03:33;22.17;;;14.53;;
6113;SDS011;3087;48.392;10.836;2022-12-05T09:06:32;20.27;;;13.53;;
6113;SDS011;3087;48.392;10.836;2022-12-05T09:08:52;17.30;;;13.77;;
6113;SDS011;3087;48.392;10.836;2022-12-05T09:11:24;18.53;;;13.57;;
6113;SDS011;3087;48.392;10.836;2022-12-05T09:13:52;17.17;;;13.20;;
6113;SDS011;3087;48.392;10.836;2022-12-05T09:16:20;18.73;;;13.10;;
6113;SDS011;3087;48.392;10.836;2022-12-05T09:18:48;18.70;;;12.63;;
6113;SDS011;3087;48.392;10.836;2022-12-05T09:21:18;21.27;;;13.60;;
6113;SDS011;3087;48.392;10.836;2022-12-05T09:23:45;17.93;;;12.97;;
6113;SDS011;3087;48.392;10.836;2022-12-05T09:26:13;21.27;;;14.03;;
6113;SDS011;3087;48.392;10.836;2022-12-05T09:28:40;17.57;;;13.33;;
6113;SDS011;3087;48.392;10.836;2022-12-05T09:31:08;17.67;;;12.97;;
6113;SDS011;3087;48.392;10.836;2022-12-05T09:33:35;17.87;;;13.77;;
6113;SDS011;3087;48.392;10.836;2022-12-05T09:36:02;18.87;;;14.03;;
6113;SDS011;3087;48.392;10.836;2022-12-05T09:38:29;22.17;;;14.40;;
6113;SDS011;3087;48.392;10.836;2022-12-05T09:41:01;17.83;;;13.47;;
6113;SDS011;3087;48.392;10.836;2022-12-05T09:46:00;15.47;;;11.97;;
6113;SDS011;3087;48.392;10.836;2022-12-05T09:48:32;17.77;;;13.53;;
6113;SDS011;3087;48.392;10.836;2022-12-05T09:50:59;20.07;;;13.83;;
6113;SDS011;3087;48.392;10.836;2022-12-05T09:53:33;14.87;;;11.80;;
6113;SDS011;3087;48.392;10.836;2022-12-05T10:01:10;17.10;;;13.30;;
6113;SDS011;3087;48.392;10.836;2022-12-05T10:03:41;17.80;;;12.00;;
6113;SDS011;3087;48.392;10.836;2022-12-05T10:06:31;20.10;;;12.10;;
6113;SDS011;3087;48.392;10.836;2022-12-05T10:14:20;18.30;;;13.17;;
6113;SDS011;3087;48.392;10.836;2022-12-05T10:17:02;18.47;;;12.93;;
6113;SDS011;3087;48.392;10.836;2022-12-05T10:19:34;18.10;;;12.70;;
6113;SDS011;3087;48.392;10.836;2022-12-05T10:24:43;18.20;;;12.83;;
6113;SDS011;3087;48.392;10.836;2022-12-05T10:27:20;17.37;;;12.70;;
6113;SDS011;3087;48.392;10.836;2022-12-05T10:30:05;17.63;;;12.80;;
6113;SDS011;3087;48.392;10.836;2022-12-05T10:33:14;17.93;;;13.70;;
6113;SDS011;3087;48.392;10.836;2022-12-05T10:38:33;15.43;;;12.20;;
6113;SDS011;3087;48.392;10.836;2022-12-05T10:40:54;14.90;;;11.73;;
6113;SDS011;3087;48.392;10.836;2022-12-05T10:43:27;18.23;;;12.67;;
6113;SDS011;3087;48.392;10.836;2022-12-05T10:45:55;17.07;;;12.70;;
6113;SDS011;3087;48.392;10.836;2022-12-05T10:48:21;18.63;;;13.17;;
6113;SDS011;3087;48.392;10.836;2022-12-05T10:50:49;15.97;;;11.20;;
6113;SDS011;3087;48.392;10.836;2022-12-05T10:53:37;17.00;;;12.23;;
6113;SDS011;3087;48.392;10.836;2022-12-05T10:56:05;16.37;;;12.23;;
6113;SDS011;3087;48.392;10.836;2022-12-05T10:59:00;16.47;;;12.00;;
6113;SDS011;3087;48.392;10.836;2022-12-05T11:01:27;16.97;;;12.50;;
6113;SDS011;3087;48.392;10.836;2022-12-05T11:04:00;19.77;;;12.77;;
6113;SDS011;3087;48.392;10.836;2022-12-05T11:06:30;18.27;;;12.90;;
6113;SDS011;3087;48.392;10.836;2022-12-05T11:11:40;18.90;;;13.80;;
6113;SDS011;3087;48.392;10.836;2022-12-05T11:14:20;16.10;;;12.37;;
6113;SDS011;3087;48.392;10.836;2022-12-05T11:16:55;18.43;;;12.90;;
6113;SDS011;3087;48.392;10.836;2022-12-05T11:21:57;16.33;;;12.63;;
6113;SDS011;3087;48.392;10.836;2022-12-05T11:24:36;17.03;;;12.27;;
6113;SDS011;3087;48.392;10.836;2022-12-05T11:29:40;16.23;;;11.57;;
6113;SDS011;3087;48.392;10.836;2022-12-05T11:32:16;16.67;;;13.00;;
6113;SDS011;3087;48.392;10.836;2022-12-05T11:34:55;17.70;;;13.30;;
6113;SDS011;3087;48.392;10.836;2022-12-05T11:37:39;22.20;;;13.97;;
6113;SDS011;3087;48.392;10.836;2022-12-05T11:48:31;18.60;;;13.00;;
6113;SDS011;3087;48.392;10.836;2022-12-05T11:54:00;18.13;;;13.20;;
6113;SDS011;3087;48.392;10.836;2022-12-05T11:56:40;17.20;;;12.33;;
6113;SDS011;3087;48.392;10.836;2022-12-05T12:07:19;14.87;;;11.07;;
6113;SDS011;3087;48.392;10.836;2022-12-05T12:15:22;13.87;;;9.83;;
6113;SDS011;3087;48.392;10.836;2022-12-05T12:34:53;14.67;;;9.40;;
6113;SDS011;3087;48.392;10.836;2022-12-05T12:46:13;8.53;;;6.83;;
6113;SDS011;3087;48.392;10.836;2022-12-05T12:51:30;10.07;;;7.17;;
6113;SDS011;3087;48.392;10.836;2022-12-05T12:56:40;8.80;;;6.53;;
6113;SDS011;3087;48.392;10.836;2022-12-05T13:02:17;10.63;;;7.20;;
6113;SDS011;3087;48.392;10.836;2022-12-05T13:05:00;6.87;;;6.07;;
6113;SDS011;3087;48.392;10.836;2022-12-05T13:07:35;8.20;;;6.37;;
6113;SDS011;3087;48.392;10.836;2022-12-05T13:12:28;8.30;;;6.63;;
6113;SDS011;3087;48.392;10.836;2022-12-05T13:15:09;7.07;;;6.20;;
6113;SDS011;3087;48.392;10.836;2022-12-05T13:17:40;8.57;;;6.67;;
6113;SDS011;3087;48.392;10.836;2022-12-05T13:20:13;7.20;;;5.70;;
6113;SDS011;3087;48.392;10.836;2022-12-05T13:22:44;8.33;;;6.80;;
6113;SDS011;3087;48.392;10.836;2022-12-05T13:25:14;7.70;;;5.90;;
6113;SDS011;3087;48.392;10.836;2022-12-05T13:27:49;7.90;;;5.97;;
6113;SDS011;3087;48.392;10.836;2022-12-05T13:30:22;6.23;;;5.40;;
6113;SDS011;3087;48.392;10.836;2022-12-05T13:32:53;8.17;;;6.10;;
6113;SDS011;3087;48.392;10.836;2022-12-05T13:35:31;6.50;;;5.40;;
6113;SDS011;3087;48.392;10.836;2022-12-05T13:38:38;7.70;;;5.40;;
6113;SDS011;3087;48.392;10.836;2022-12-05T13:41:22;6.80;;;5.60;;
6113;SDS011;3087;48.392;10.836;2022-12-05T13:47:05;8.67;;;5.73;;
6113;SDS011;3087;48.392;10.836;2022-12-05T13:49:44;8.73;;;5.43;;
6113;SDS011;3087;48.392;10.836;2022-12-05T13:52:18;8.60;;;5.73;;
6113;SDS011;3087;48.392;10.836;2022-12-05T13:54:53;7.17;;;5.60;;
6113;SDS011;3087;48.392;10.836;2022-12-05T13:57:47;6.47;;;5.50;;
6113;SDS011;3087;48.392;10.836;2022-12-05T14:07:53;7.60;;;6.23;;
6113;SDS011;3087;48.392;10.836;2022-12-05T14:11:05;6.83;;;5.60;;
6113;SDS011;3087;48.392;10.836;2022-12-05T14:15:40;5.77;;;4.83;;
6113;SDS011;3087;48.392;10.836;2022-12-05T14:18:12;5.50;;;4.83;;
6113;SDS011;3087;48.392;10.836;2022-12-05T14:31:36;6.43;;;5.43;;
6113;SDS011;3087;48.392;10.836;2022-12-05T14:34:22;6.10;;;5.07;;
6113;SDS011;3087;48.392;10.836;2022-12-05T14:36:57;8.00;;;6.33;;
6113;SDS011;3087;48.392;10.836;2022-12-05T14:42:00;7.60;;;6.27;;
6113;SDS011;3087;48.392;10.836;2022-12-05T14:44:29;6.80;;;5.87;;
6113;SDS011;3087;48.392;10.836;2022-12-05T14:46:59;6.13;;;5.33;;
6113;SDS011;3087;48.392;10.836;2022-12-05T14:52:19;6.10;;;5.27;;
6113;SDS011;3087;48.392;10.836;2022-12-05T14:54:46;8.73;;;6.07;;
6113;SDS011;3087;48.392;10.836;2022-12-05T14:57:14;5.87;;;5.27;;
6113;SDS011;3087;48.392;10.836;2022-12-05T14:59:47;7.60;;;5.47;;
6113;SDS011;3087;48.392;10.836;2022-12-05T15:02:27;7.13;;;5.63;;
6113;SDS011;3087;48.392;10.836;2022-12-05T15:07:49;7.53;;;6.27;;
6113;SDS011;3087;48.392;10.836;2022-12-05T15:10:24;7.67;;;6.70;;
6113;SDS011;3087;48.392;10.836;2022-12-05T15:13:12;7.37;;;5.93;;
6113;SDS011;3087;48.392;10.836;2022-12-05T15:15:42;7.73;;;6.83;;
6113;SDS011;3087;48.392;10.836;2022-12-05T15:23:42;10.13;;;7.07;;
6113;SDS011;3087;48.392;10.836;2022-12-05T15:39:53;7.40;;;6.27;;
6113;SDS011;3087;48.392;10.836;2022-12-05T15:42:34;7.37;;;5.70;;
6113;SDS011;3087;48.392;10.836;2022-12-05T15:47:45;8.73;;;6.47;;
6113;SDS011;3087;48.392;10.836;2022-12-05T15:50:12;9.73;;;6.67;;
6113;SDS011;3087;48.392;10.836;2022-12-05T15:52:45;8.40;;;6.93;;
6113;SDS011;3087;48.392;10.836;2022-12-05T15:58:04;8.23;;;6.60;;
6113;SDS011;3087;48.392;10.836;2022-12-05T16:00:54;9.47;;;7.60;;
6113;SDS011;3087;48.392;10.836;2022-12-05T16:08:56;9.33;;;7.33;;
6113;SDS011;3087;48.392;10.836;2022-12-05T16:11:23;8.37;;;6.90;;
6113;SDS011;3087;48.392;10.836;2022-12-05T16:13:50;8.50;;;7.37;;
6113;SDS011;3087;48.392;10.836;2022-12-05T16:16:20;8.40;;;7.33;;
6113;SDS011;3087;48.392;10.836;2022-12-05T16:18:51;8.53;;;6.70;;
6113;SDS011;3087;48.392;10.836;2022-12-05T16:23:58;10.60;;;8.27;;
6113;SDS011;3087;48.392;10.836;2022-12-05T16:26:25;10.67;;;8.10;;
6113;SDS011;3087;48.392;10.836;2022-12-05T16:28:59;9.10;;;7.30;;
6113;SDS011;3087;48.392;10.836;2022-12-05T16:31:26;9.53;;;7.10;;
6113;SDS011;3087;48.392;10.836;2022-12-05T16:33:58;8.13;;;6.67;;
6113;SDS011;3087;48.392;10.836;2022-12-05T16:36:24;8.50;;;6.83;;
6113;SDS011;3087;48.392;10.836;2022-12-05T16:38:58;10.07;;;7.33;;
6113;SDS011;3087;48.392;10.836;2022-12-05T16:41:35;8.50;;;6.40;;
6113;SDS011;3087;48.392;10.836;2022-12-05T16:44:02;17.93;;;11.53;;
6113;SDS011;3087;48.392;10.836;2022-12-05T16:49:20;18.77;;;11.00;;
6113;SDS011;3087;48.392;10.836;2022-12-05T16:54:31;16.30;;;11.93;;
6113;SDS011;3087;48.392;10.836;2022-12-05T16:56:58;10.00;;;7.63;;
6113;SDS011;3087;48.392;10.836;2022-12-05T16:59:35;10.63;;;8.97;;
6113;SDS011;3087;48.392;10.836;2022-12-05T17:02:03;9.37;;;7.27;;
6113;SDS011;3087;48.392;10.836;2022-12-05T17:04:31;8.37;;;7.13;;
6113;SDS011;3087;48.392;10.836;2022-12-05T17:06:57;9.53;;;7.00;;
6113;SDS011;3087;48.392;10.836;2022-12-05T17:09:23;6.93;;;6.23;;
6113;SDS011;3087;48.392;10.836;2022-12-05T17:11:50;8.70;;;6.57;;
6113;SDS011;3087;48.392;10.836;2022-12-05T17:14:18;10.60;;;7.93;;
6113;SDS011;3087;48.392;10.836;2022-12-05T17:16:44;8.03;;;6.80;;
6113;SDS011;3087;48.392;10.836;2022-12-05T17:19:10;10.17;;;8.23;;
6113;SDS011;3087;48.392;10.836;2022-12-05T17:21:36;9.43;;;8.20;;
6113;SDS011;3087;48.392;10.836;2022-12-05T17:24:03;10.97;;;7.57;;
6113;SDS011;3087;48.392;10.836;2022-12-05T17:26:29;9.20;;;7.37;;
6113;SDS011;3087;48.392;10.836;2022-12-05T17:28:55;9.50;;;7.10;;
6113;SDS011;3087;48.392;10.836;2022-12-05T17:31:22;8.37;;;7.20;;
6113;SDS011;3087;48.392;10.836;2022-12-05T17:33:49;8.53;;;6.50;;
6113;SDS011;3087;48.392;10.836;2022-12-05T17:36:16;7.97;;;6.93;;
6113;SDS011;3087;48.392;10.836;2022-12-05T17:38:44;9.63;;;6.70;;
6113;SDS011;3087;48.392;10.836;2022-12-05T17:41:13;8.40;;;7.33;;
6113;SDS011;3087;48.392;10.836;2022-12-05T17:43:41;11.47;;;8.13;;
6113;SDS011;3087;48.392;10.836;2022-12-05T17:46:07;11.20;;;8.80;;
6113;SDS011;3087;48.392;10.836;2022-12-05T17:48:34;9.57;;;7.63;;
6113;SDS011;3087;48.392;10.836;2022-12-05T17:50:59;10.67;;;8.90;;
6113;SDS011;3087;48.392;10.836;2022-12-05T17:53:28;10.97;;;8.80;;
6113;SDS011;3087;48.392;10.836;2022-12-05T17:55:54;10.70;;;8.63;;
6113;SDS011;3087;48.392;10.836;2022-12-05T17:58:20;11.13;;;8.40;;
6113;SDS011;3087;48.392;10.836;2022-12-05T18:00:46;10.40;;;8.80;;
6113;SDS011;3087;48.392;10.836;2022-12-05T18:03:13;10.33;;;8.40;;
6113;SDS011;3087;48.392;10.836;2022-12-05T18:05:40;10.40;;;7.77;;
6113;SDS011;3087;48.392;10.836;2022-12-05T18:08:06;11.17;;;8.93;;
6113;SDS011;3087;48.392;10.836;2022-12-05T18:10:32;12.90;;;9.83;;
6113;SDS011;3087;48.392;10.836;2022-12-05T18:12:58;12.37;;;9.80;;
6113;SDS011;3087;48.392;10.836;2022-12-05T18:15:24;10.40;;;8.93;;